»·PEaware :: N2842Y KSMX-KBFL

N2842Y :: KSMX-KBFL

FLIGHT INFORMATION

Flight Status: Arrived
Operator: Privately registered:
United States
More flights under this callsign
Pilot: Cody B. (17747)
Aircraft: CESSNA 172 SKYHAWK
(C172)
More flights by this aircraft type
Origin: KSMX Santa Maria Pub/Capt Hancock
United States
Destination: KBFL Meadows
United States
More flights between these airports :: More routes between these airports
Route:
File this flight plan on PilotEdge
Remarks: For the CAT - 5 rating.
Altitude:
(Current/Filed)
7,500ft
Speed:
(Current/Filed)
115kts
Departed: 13-Jun-18 03:20 PM
Arrived: 13-Jun-18 04:06 PM
Distance/Time
Traveled:
76nm/0:46
Distance/Time
To Go:
Arrived

Flight Plot

Page will automatically refresh every two minutes.


Map Options




Map Legend


Flown Route
Filed Route
Departure Airport
Arrival Airport
Navaid (VOR, NDB)
Fix

Horizontal Profiles

Position Reports

Time Latitude Longitude Heading Altitude Ground
Speed
13-Jun-18 15:02 34.896404 -120.445439 314 265ft 0kts
13-Jun-18 15:03 34.896404 -120.445439 314 265ft 0kts
13-Jun-18 15:04 34.896404 -120.445439 314 265ft 0kts
13-Jun-18 15:05 34.896404 -120.445439 314 265ft 0kts
13-Jun-18 15:06 34.896404 -120.445439 314 265ft 0kts
13-Jun-18 15:07 34.896404 -120.445439 314 265ft 0kts
13-Jun-18 15:08 34.896404 -120.445439 314 265ft 0kts
13-Jun-18 15:09 34.896404 -120.445439 314 265ft 0kts
13-Jun-18 15:10 34.896404 -120.445439 314 265ft 0kts
13-Jun-18 15:11 34.896404 -120.445439 314 265ft 0kts
13-Jun-18 15:12 34.896404 -120.445439 314 265ft 0kts
13-Jun-18 15:13 34.896404 -120.445439 314 265ft 0kts
13-Jun-18 15:14 34.896431 -120.445509 287 265ft 1kts
13-Jun-18 15:15 34.895294 -120.444983 136 265ft 8kts
13-Jun-18 15:16 34.894228 -120.445013 129 265ft 8kts
13-Jun-18 15:17 34.893125 -120.444963 181 265ft 0kts
13-Jun-18 15:18 34.893119 -120.444963 182 265ft 0kts
13-Jun-18 15:19 34.892697 -120.445601 297 265ft 5kts
13-Jun-18 15:20 34.902452 -120.456696 309 645ft 70kts
13-Jun-18 15:21 34.915158 -120.458367 72 1464ft 79kts
13-Jun-18 15:22 34.910719 -120.429851 80 2174ft 95kts
13-Jun-18 15:23 34.918189 -120.399428 65 3055ft 88kts
13-Jun-18 15:24 34.928222 -120.371308 58 3833ft 92kts
13-Jun-18 15:25 34.938159 -120.341842 65 4583ft 95kts
13-Jun-18 15:26 34.947829 -120.311017 62 5293ft 96kts
13-Jun-18 15:27 34.958565 -120.281516 63 6003ft 92kts
13-Jun-18 15:28 34.967437 -120.251557 72 6641ft 94kts
13-Jun-18 15:29 34.976353 -120.225011 83 7369ft 71kts
13-Jun-18 15:30 34.986426 -120.195439 70 7610ft 112kts
13-Jun-18 15:31 34.999729 -120.155687 71 7519ft 133kts
13-Jun-18 15:32 35.013222 -120.113480 70 7521ft 133kts
13-Jun-18 15:33 35.026894 -120.071441 70 7521ft 133kts
13-Jun-18 15:34 35.040549 -120.029431 70 7521ft 133kts
13-Jun-18 15:35 35.054232 -119.987283 70 7521ft 133kts
13-Jun-18 15:36 35.068472 -119.945496 67 7521ft 133kts
13-Jun-18 15:37 35.082170 -119.903399 72 7521ft 133kts
13-Jun-18 15:38 35.096029 -119.861482 64 7522ft 134kts
13-Jun-18 15:39 35.112989 -119.821694 64 7482ft 135kts
13-Jun-18 15:40 35.130244 -119.781285 65 7482ft 133kts
13-Jun-18 15:41 35.147282 -119.741281 64 7483ft 133kts
13-Jun-18 15:42 35.164601 -119.700581 63 7394ft 135kts
13-Jun-18 15:43 35.181601 -119.660563 63 7394ft 127kts
13-Jun-18 15:44 35.197358 -119.623399 63 7395ft 122kts
13-Jun-18 15:45 35.212813 -119.586683 63 7414ft 119kts
13-Jun-18 15:46 35.227223 -119.551644 63 7524ft 118kts
13-Jun-18 15:47 35.242453 -119.515467 63 7523ft 120kts
13-Jun-18 15:48 35.257854 -119.478999 63 7523ft 120kts
13-Jun-18 15:49 35.273143 -119.442787 63 7523ft 119kts
13-Jun-18 15:50 35.288856 -119.405439 63 7221ft 127kts
13-Jun-18 15:51 35.304818 -119.367487 62 6723ft 123kts
13-Jun-18 15:52 35.319843 -119.331778 62 6239ft 122kts
13-Jun-18 15:53 35.335164 -119.295312 62 5701ft 119kts
13-Jun-18 15:54 35.350858 -119.257902 61 4897ft 125kts
13-Jun-18 15:55 35.366652 -119.220225 61 4097ft 120kts
13-Jun-18 15:56 35.380790 -119.186403 60 3287ft 102kts
13-Jun-18 15:57 35.393059 -119.157057 59 2482ft 94kts
13-Jun-18 15:58 35.405149 -119.128225 59 1713ft 96kts
13-Jun-18 15:59 35.416199 -119.099697 64 1333ft 94kts
13-Jun-18 16:00 35.419643 -119.067501 129 1340ft 103kts
13-Jun-18 16:01 35.398939 -119.045822 136 1496ft 93kts
13-Jun-18 16:02 35.399819 -119.023676 21 1262ft 58kts
13-Jun-18 16:03 35.412248 -119.029930 315 995ft 55kts
13-Jun-18 16:04 35.423327 -119.043604 315 754ft 58kts
13-Jun-18 16:05 35.434330 -119.056827 317 488ft 52kts
13-Jun-18 16:06 35.438172 -119.059939 60 495ft 0kts
13-Jun-18 16:07 35.438073 -119.059074 128 497ft 9kts
13-Jun-18 16:08 35.435484 -119.055952 134 493ft 19kts
13-Jun-18 16:09 35.435099 -119.053914 44 497ft 8kts
13-Jun-18 16:10 35.435500 -119.053478 349 500ft 3kts
13-Jun-18 16:11 35.435697 -119.053082 175 501ft 0kts

Navigation Log

Ident Type
1. KSMX Airport
2. KBFL Airport